createdAt,value
2019-03-18T00:01:13.282Z,75.29
2019-03-18T00:03:40.618Z,74.87
2019-03-18T00:06:07.900Z,75.13
2019-03-18T00:08:35.208Z,75.29
2019-03-18T00:11:02.515Z,74.43
2019-03-18T00:13:29.763Z,74.17
2019-03-18T00:15:57.062Z,72.16
2019-03-18T00:18:24.323Z,72.00
2019-03-18T00:20:51.757Z,73.02
2019-03-18T00:23:19.031Z,72.00
2019-03-18T00:25:46.320Z,72.37
2019-03-18T00:28:13.653Z,71.90
2019-03-18T00:30:40.978Z,72.14
2019-03-18T00:33:08.226Z,73.98
2019-03-18T00:35:35.481Z,73.54
2019-03-18T00:38:02.772Z,72.96
2019-03-18T00:40:30.020Z,73.21
2019-03-18T00:42:57.278Z,73.13
2019-03-18T00:45:24.569Z,74.00
2019-03-18T00:47:51.843Z,72.89
2019-03-18T00:50:19.129Z,73.35
2019-03-18T00:52:46.403Z,74.00
2019-03-18T00:55:13.680Z,73.51
2019-03-18T00:57:41.302Z,73.70
2019-03-18T01:00:08.972Z,72.84
2019-03-18T01:02:36.228Z,72.25
2019-03-18T01:05:04.087Z,72.12
2019-03-18T01:07:31.309Z,71.77
2019-03-18T01:09:58.592Z,72.00
2019-03-18T01:12:25.871Z,71.30
2019-03-18T01:14:53.146Z,71.70
2019-03-18T01:17:20.485Z,71.93
2019-03-18T01:19:47.826Z,72.03
2019-03-18T01:22:15.077Z,72.03
2019-03-18T01:24:42.385Z,71.40
2019-03-18T01:27:09.597Z,72.79
2019-03-18T01:29:36.826Z,72.51
2019-03-18T01:32:04.188Z,71.80
2019-03-18T01:34:31.435Z,71.98
2019-03-18T01:36:58.686Z,72.40
2019-03-18T01:39:25.986Z,72.98
2019-03-18T01:41:53.300Z,73.13
2019-03-18T01:44:20.539Z,72.51
2019-03-18T01:46:47.867Z,71.88
2019-03-18T01:49:15.107Z,70.76
2019-03-18T01:51:42.404Z,70.23
2019-03-18T01:54:09.723Z,69.22
2019-03-18T01:56:37.072Z,69.33
2019-03-18T01:59:04.337Z,69.56
2019-03-18T02:01:31.610Z,69.90
2019-03-18T02:03:58.863Z,70.41
2019-03-18T02:06:26.098Z,70.21
2019-03-18T02:08:53.389Z,70.33
2019-03-18T02:11:20.650Z,72.45
2019-03-18T02:13:47.897Z,70.72
2019-03-18T02:16:15.190Z,70.29
2019-03-18T02:18:42.452Z,71.99
2019-03-18T02:21:09.759Z,71.81
2019-03-18T02:23:37.036Z,72.17
2019-03-18T02:26:04.264Z,72.40
2019-03-18T02:28:31.502Z,72.30
2019-03-18T02:30:58.834Z,72.75
2019-03-18T02:33:26.117Z,72.62
2019-03-18T02:35:53.375Z,74.22
2019-03-18T02:38:20.666Z,73.25
2019-03-18T02:40:47.944Z,73.36
2019-03-18T02:43:15.252Z,73.31
2019-03-18T02:45:42.541Z,73.95
2019-03-18T02:48:09.792Z,74.75
2019-03-18T02:50:37.058Z,73.45
2019-03-18T02:53:04.376Z,73.46
2019-03-18T02:55:31.627Z,73.33
2019-03-18T02:57:58.864Z,73.16
2019-03-18T03:00:26.154Z,74.01
2019-03-18T03:02:53.421Z,73.76
2019-03-18T03:05:20.644Z,72.89
2019-03-18T03:07:47.932Z,73.41
2019-03-18T03:10:15.170Z,72.99
2019-03-18T03:12:42.441Z,71.65
2019-03-18T03:15:10.306Z,71.64
2019-03-18T03:17:37.556Z,71.54
2019-03-18T03:20:05.333Z,71.16
2019-03-18T03:22:32.637Z,71.46
2019-03-18T03:24:59.883Z,71.38
2019-03-18T03:27:27.162Z,71.50
2019-03-18T03:29:54.431Z,71.05
2019-03-18T03:32:21.706Z,70.83
2019-03-18T03:34:48.973Z,70.80
2019-03-18T03:37:16.221Z,70.41
2019-03-18T03:39:43.515Z,70.58
2019-03-18T03:42:10.876Z,71.37
2019-03-18T03:44:38.146Z,70.93
2019-03-18T03:47:05.442Z,70.74
2019-03-18T03:49:32.685Z,70.18
2019-03-18T03:52:00.020Z,71.26
2019-03-18T03:54:27.731Z,70.64
2019-03-18T03:56:55.066Z,72.62
2019-03-18T03:59:22.327Z,71.46
2019-03-18T04:01:49.711Z,72.47
2019-03-18T04:04:17.047Z,71.64
2019-03-18T04:06:44.405Z,71.91
2019-03-18T04:09:11.660Z,72.36
2019-03-18T04:11:38.897Z,72.26
2019-03-18T04:14:06.188Z,72.33
2019-03-18T04:16:33.436Z,71.53
2019-03-18T04:19:00.794Z,72.34
2019-03-18T04:21:28.067Z,72.73
2019-03-18T04:23:55.349Z,72.54
2019-03-18T04:26:22.593Z,72.44
2019-03-18T04:28:49.841Z,72.99
2019-03-18T04:31:17.117Z,73.19
2019-03-18T04:33:44.376Z,72.98
2019-03-18T04:36:11.659Z,73.24
2019-03-18T04:38:38.920Z,73.32
2019-03-18T04:41:06.147Z,73.58
2019-03-18T04:43:33.407Z,74.20
2019-03-18T04:46:00.737Z,75.62
2019-03-18T04:48:28.093Z,75.09
2019-03-18T04:50:55.351Z,74.73
2019-03-18T04:53:22.600Z,73.95
2019-03-18T04:55:49.923Z,73.20
2019-03-18T04:58:17.659Z,73.12
2019-03-18T05:00:44.910Z,72.39
2019-03-18T05:03:12.172Z,72.15
2019-03-18T05:05:39.446Z,73.03
2019-03-18T05:08:06.743Z,71.69
2019-03-18T05:10:34.023Z,68.75
2019-03-18T05:13:01.374Z,68.56
2019-03-18T05:15:28.632Z,69.49
2019-03-18T05:17:55.855Z,68.84
2019-03-18T05:20:23.097Z,68.51
2019-03-18T05:22:50.395Z,70.95
2019-03-18T05:25:17.648Z,67.91
2019-03-18T05:27:44.904Z,68.41
2019-03-18T05:30:12.287Z,69.06
2019-03-18T05:32:39.556Z,71.00
2019-03-18T05:35:06.826Z,70.39
2019-03-18T05:37:34.149Z,71.09
2019-03-18T05:40:01.381Z,72.57
2019-03-18T05:42:28.630Z,70.74
2019-03-18T05:44:55.909Z,70.93
2019-03-18T05:47:23.149Z,72.51
2019-03-18T05:49:50.487Z,71.73
2019-03-18T05:52:17.786Z,71.83
2019-03-18T05:54:45.007Z,72.45
2019-03-18T05:57:12.341Z,72.41
2019-03-18T05:59:39.583Z,71.85
2019-03-18T06:02:09.397Z,71.99
2019-03-18T06:04:36.669Z,72.33
2019-03-18T06:07:03.926Z,71.58
2019-03-18T06:09:31.167Z,71.66
2019-03-18T06:11:58.441Z,71.70
2019-03-18T06:14:25.699Z,72.23
2019-03-18T06:16:52.933Z,71.94
2019-03-18T06:19:20.216Z,71.46
2019-03-18T06:21:47.531Z,71.60
2019-03-18T06:24:14.814Z,71.39
2019-03-18T06:26:42.132Z,71.58
2019-03-18T06:29:09.427Z,71.58
2019-03-18T06:31:36.680Z,71.77
2019-03-18T06:34:04.026Z,71.48
2019-03-18T06:36:31.325Z,71.76
2019-03-18T06:38:58.583Z,71.20
2019-03-18T06:41:29.014Z,71.36
2019-03-18T06:43:56.349Z,70.98
2019-03-18T06:46:23.602Z,70.75
2019-03-18T06:48:50.899Z,70.78
2019-03-18T06:51:18.164Z,70.87
2019-03-18T06:53:45.445Z,70.83
2019-03-18T06:56:12.701Z,70.28
2019-03-18T06:58:40.132Z,69.77
2019-03-18T07:01:07.401Z,70.34
2019-03-18T07:03:34.653Z,69.80
2019-03-18T07:06:02.056Z,70.14
2019-03-18T07:08:29.287Z,70.31
2019-03-18T07:10:56.582Z,71.19
2019-03-18T07:13:23.894Z,70.15
2019-03-18T07:15:51.184Z,70.51
2019-03-18T07:18:19.178Z,69.97
2019-03-18T07:20:46.531Z,69.89
2019-03-18T07:23:13.830Z,69.98
2019-03-18T07:25:41.093Z,70.29
2019-03-18T07:28:08.370Z,70.10
2019-03-18T07:30:35.688Z,71.08
2019-03-18T07:33:02.960Z,71.73
2019-03-18T07:35:30.253Z,72.34
2019-03-18T07:37:57.547Z,71.38
2019-03-18T07:40:25.851Z,69.89
2019-03-18T07:42:53.136Z,69.31
2019-03-18T07:45:20.411Z,69.76
2019-03-18T07:47:47.694Z,67.88
2019-03-18T07:50:15.283Z,68.87
2019-03-18T07:52:42.736Z,69.87
2019-03-18T07:55:10.108Z,70.24
2019-03-18T07:57:37.441Z,70.95
2019-03-18T08:00:05.053Z,70.72
2019-03-18T08:02:32.366Z,70.20
2019-03-18T08:04:59.629Z,69.81
2019-03-18T08:07:26.871Z,68.46
2019-03-18T08:09:54.110Z,67.14
2019-03-18T08:12:21.869Z,66.06
2019-03-18T08:14:52.116Z,65.73
2019-03-18T08:17:19.499Z,66.14
2019-03-18T08:19:46.764Z,65.66
2019-03-18T08:22:14.072Z,65.33
2019-03-18T08:24:41.385Z,65.14
2019-03-18T08:27:10.042Z,63.98
2019-03-18T08:29:37.297Z,65.04
2019-03-18T08:32:04.613Z,65.10
2019-03-18T08:34:31.872Z,64.24
2019-03-18T08:36:59.191Z,64.26
2019-03-18T08:39:26.408Z,64.56
2019-03-18T08:41:53.680Z,63.91
2019-03-18T08:44:20.982Z,64.00
2019-03-18T08:46:48.229Z,61.43
2019-03-18T08:49:15.540Z,62.72
2019-03-18T08:51:42.816Z,62.96
2019-03-18T08:54:10.237Z,63.31
2019-03-18T08:56:37.462Z,63.74
2019-03-18T08:59:04.763Z,63.71
2019-03-18T09:01:32.007Z,63.59
2019-03-18T09:03:59.322Z,64.39
2019-03-18T09:06:26.680Z,64.06
2019-03-18T09:08:53.954Z,62.76
2019-03-18T09:11:21.236Z,63.98
2019-03-18T09:13:48.525Z,62.94
2019-03-18T09:16:15.793Z,62.43
2019-03-18T09:18:43.099Z,61.65
2019-03-18T09:21:10.392Z,63.14
2019-03-18T09:23:37.660Z,61.67
2019-03-18T09:26:05.045Z,62.27
2019-03-18T09:28:32.328Z,62.58
2019-03-18T09:30:59.572Z,62.62
2019-03-18T09:33:26.852Z,62.76
2019-03-18T09:35:54.086Z,63.11
2019-03-18T09:38:21.358Z,65.20
2019-03-18T09:40:48.692Z,63.61
2019-03-18T09:43:15.968Z,63.29
2019-03-18T09:45:43.190Z,62.60
2019-03-18T09:48:10.532Z,62.11
2019-03-18T09:50:37.919Z,63.12
2019-03-18T09:53:05.920Z,61.88
2019-03-18T09:55:33.155Z,62.43
2019-03-18T09:58:00.525Z,61.37
2019-03-18T10:00:27.850Z,62.30
2019-03-18T10:02:55.519Z,62.25
2019-03-18T10:05:23.124Z,60.70
2019-03-18T10:07:50.481Z,64.91
2019-03-18T10:10:17.781Z,64.91
2019-03-18T10:12:45.020Z,64.23
2019-03-18T10:15:12.442Z,64.95
2019-03-18T10:17:39.668Z,65.39
2019-03-18T10:20:07.043Z,65.06
2019-03-18T10:22:36.054Z,65.58
2019-03-18T10:25:04.398Z,65.72
2019-03-18T10:27:31.859Z,65.48
2019-03-18T10:29:59.122Z,65.36
2019-03-18T10:32:26.435Z,64.37
2019-03-18T10:34:53.682Z,65.12
2019-03-18T10:37:20.950Z,65.77
2019-03-18T10:39:48.221Z,65.98
2019-03-18T10:42:15.506Z,65.44
2019-03-18T10:44:42.739Z,65.58
2019-03-18T10:47:10.085Z,65.82
2019-03-18T10:49:46.094Z,66.00
2019-03-18T10:52:06.472Z,68.01
2019-03-18T10:54:33.866Z,67.57
2019-03-18T10:57:01.096Z,64.53
2019-03-18T10:59:28.446Z,62.78
2019-03-18T11:01:55.701Z,62.78
2019-03-18T11:04:22.978Z,61.45
2019-03-18T11:06:50.264Z,61.60
2019-03-18T11:09:17.518Z,60.91
2019-03-18T11:11:44.838Z,57.31
2019-03-18T11:14:12.137Z,58.62
2019-03-18T11:16:39.382Z,58.94
2019-03-18T11:19:06.703Z,59.80
2019-03-18T11:21:34.015Z,59.76
2019-03-18T11:24:01.339Z,60.64
2019-03-18T11:26:28.605Z,61.04
2019-03-18T11:28:55.882Z,60.84
2019-03-18T11:31:23.225Z,61.09
2019-03-18T11:33:50.458Z,60.06
2019-03-18T11:36:17.746Z,59.58
2019-03-18T11:38:45.112Z,59.58
2019-03-18T11:41:12.369Z,59.34
2019-03-18T11:43:39.621Z,59.70
2019-03-18T11:46:06.933Z,59.28
2019-03-18T11:48:34.203Z,59.28
2019-03-18T11:51:01.497Z,59.45
2019-03-18T11:53:28.745Z,59.91
2019-03-18T11:55:55.996Z,60.10
2019-03-18T11:58:23.265Z,59.77
2019-03-18T12:00:50.605Z,58.01
2019-03-18T12:03:17.863Z,59.01
2019-03-18T12:05:45.143Z,58.56
2019-03-18T12:08:12.430Z,57.98
2019-03-18T12:10:39.676Z,58.10
2019-03-18T12:13:06.963Z,60.57
2019-03-18T12:15:36.524Z,61.18
2019-03-18T12:18:03.711Z,60.18
2019-03-18T12:20:33.153Z,59.94
2019-03-18T12:23:00.130Z,60.33
2019-03-18T12:25:27.410Z,58.52
2019-03-18T12:27:54.675Z,58.86
2019-03-18T12:30:22.051Z,58.82
2019-03-18T12:32:49.322Z,59.81
2019-03-18T12:35:16.704Z,59.56
2019-03-18T12:37:44.246Z,58.89
2019-03-18T12:40:11.813Z,59.23
2019-03-18T12:42:39.069Z,58.15
2019-03-18T12:45:08.826Z,59.21
2019-03-18T12:47:36.383Z,58.73
2019-03-18T12:50:04.944Z,61.81
2019-03-18T12:52:32.196Z,57.30
2019-03-18T12:54:59.502Z,58.14
2019-03-18T12:57:26.750Z,56.21
2019-03-18T12:59:54.035Z,57.73
2019-03-18T13:02:21.341Z,56.25
2019-03-18T13:04:48.610Z,55.95
2019-03-18T13:07:15.866Z,58.07
2019-03-18T13:09:43.213Z,57.38
2019-03-18T13:12:13.187Z,57.11
2019-03-18T13:14:39.708Z,57.20
2019-03-18T13:17:07.132Z,56.32
2019-03-18T13:19:34.375Z,57.07
2019-03-18T13:22:01.669Z,55.05
2019-03-18T13:24:28.963Z,53.54
2019-03-18T13:26:58.578Z,55.23
2019-03-18T13:29:25.421Z,58.90
2019-03-18T13:31:52.694Z,58.90
2019-03-18T13:34:19.942Z,58.11
2019-03-18T13:36:47.234Z,59.59
2019-03-18T13:39:14.500Z,59.59
2019-03-18T13:41:41.770Z,58.53
2019-03-18T13:44:09.046Z,58.53
2019-03-18T13:46:36.339Z,59.36
2019-03-18T13:49:03.675Z,58.35
2019-03-18T13:51:30.972Z,58.38
2019-03-18T13:53:58.268Z,58.38
2019-03-18T13:56:25.557Z,56.70
2019-03-18T13:58:52.969Z,58.08
2019-03-18T14:01:20.261Z,57.65
2019-03-18T14:03:47.565Z,57.65
2019-03-18T14:06:14.814Z,55.77
2019-03-18T14:08:42.084Z,55.30
2019-03-18T14:11:09.392Z,56.52
2019-03-18T14:13:36.650Z,55.72
2019-03-18T14:16:03.925Z,56.67
2019-03-18T14:18:31.220Z,56.20
2019-03-18T14:20:58.501Z,54.19
2019-03-18T14:23:25.759Z,54.19
2019-03-18T14:25:53.072Z,54.12
2019-03-18T14:28:20.332Z,54.52
2019-03-18T14:30:47.593Z,55.96
2019-03-18T14:33:14.912Z,53.89
2019-03-18T14:35:42.137Z,54.35
2019-03-18T14:38:09.427Z,56.98
2019-03-18T14:40:36.707Z,56.98
2019-03-18T14:43:04.152Z,55.77
2019-03-18T14:45:31.454Z,57.06
2019-03-18T14:47:58.743Z,57.16
2019-03-18T14:50:26.021Z,56.60
2019-03-18T14:52:53.361Z,58.59
2019-03-18T14:55:20.626Z,59.79
2019-03-18T14:57:47.907Z,59.83
2019-03-18T15:00:17.191Z,60.63
2019-03-18T15:02:45.041Z,60.63
2019-03-18T15:05:12.373Z,62.55
2019-03-18T15:07:39.819Z,61.00
2019-03-18T15:10:07.687Z,61.23
2019-03-18T15:12:34.973Z,59.95
2019-03-18T15:15:02.330Z,59.95
2019-03-18T15:17:29.735Z,60.80
2019-03-18T15:19:56.993Z,60.75
2019-03-18T15:22:24.231Z,60.57
2019-03-18T15:24:51.569Z,60.57
2019-03-18T15:27:18.811Z,60.23
2019-03-18T15:29:46.146Z,59.72
2019-03-18T15:32:13.506Z,62.09
2019-03-18T15:34:40.837Z,61.24
2019-03-18T15:37:08.144Z,61.23
2019-03-18T15:39:35.384Z,59.57
2019-03-18T15:42:02.683Z,60.33
2019-03-18T15:44:30.039Z,60.81
2019-03-18T15:46:57.302Z,60.81
2019-03-18T15:49:24.584Z,60.09
2019-03-18T15:51:52.010Z,59.49
2019-03-18T15:54:19.304Z,59.21
2019-03-18T15:56:46.615Z,59.21
2019-03-18T15:59:13.894Z,59.51
2019-03-18T16:01:41.211Z,60.63
2019-03-18T16:04:08.506Z,60.60
2019-03-18T16:06:35.783Z,60.59
2019-03-18T16:09:06.316Z,61.80
2019-03-18T16:11:34.168Z,62.15
2019-03-18T16:14:01.586Z,62.37
2019-03-18T16:16:28.982Z,62.87
2019-03-18T16:18:56.314Z,62.34
2019-03-18T16:21:24.141Z,62.78
2019-03-18T16:23:51.397Z,62.37
2019-03-18T16:26:18.692Z,62.37
2019-03-18T16:28:45.950Z,62.05
2019-03-18T16:31:13.203Z,62.79
2019-03-18T16:33:43.703Z,63.42
2019-03-18T16:36:11.005Z,63.42
2019-03-18T16:38:38.329Z,64.20
2019-03-18T16:41:05.590Z,64.69
2019-03-18T16:43:32.927Z,64.69
2019-03-18T16:46:00.206Z,65.46
2019-03-18T16:48:27.446Z,65.01
2019-03-18T16:50:54.680Z,65.16
2019-03-18T16:53:22.098Z,65.37
2019-03-18T16:55:49.330Z,65.46
2019-03-18T16:58:16.589Z,65.28
2019-03-18T17:00:43.904Z,65.38
2019-03-18T17:03:11.168Z,65.37
2019-03-18T17:05:38.374Z,66.17
2019-03-18T17:08:05.647Z,64.89
2019-03-18T17:10:32.931Z,64.88
2019-03-18T17:13:00.201Z,65.12
2019-03-18T17:15:27.511Z,65.45
2019-03-18T17:17:54.743Z,65.55
2019-03-18T17:20:21.970Z,65.94
2019-03-18T17:22:50.361Z,66.22
2019-03-18T17:25:17.866Z,66.09
2019-03-18T17:27:45.266Z,66.01
2019-03-18T17:30:15.296Z,66.40
2019-03-18T17:32:42.679Z,66.29
2019-03-18T17:35:10.200Z,65.97
2019-03-18T17:37:37.527Z,66.31
2019-03-18T17:40:04.903Z,65.93
2019-03-18T17:42:32.192Z,65.85
2019-03-18T17:45:00.395Z,65.01
2019-03-18T17:47:27.952Z,64.77
2019-03-18T17:49:55.242Z,64.89
2019-03-18T17:52:22.493Z,64.80
2019-03-18T17:54:49.759Z,65.01
2019-03-18T17:57:17.078Z,64.87
2019-03-18T17:59:44.331Z,65.23
2019-03-18T18:02:11.681Z,64.92
2019-03-18T18:04:38.927Z,65.17
2019-03-18T18:07:06.202Z,64.79
2019-03-18T18:09:33.490Z,64.39
2019-03-18T18:12:00.847Z,63.90
2019-03-18T18:14:28.138Z,63.65
2019-03-18T18:16:55.422Z,63.78
2019-03-18T18:19:22.715Z,64.21
2019-03-18T18:21:49.972Z,64.46
2019-03-18T18:24:17.296Z,64.78
2019-03-18T18:26:44.603Z,64.88
2019-03-18T18:29:11.842Z,64.90
2019-03-18T18:31:39.086Z,64.99
2019-03-18T18:34:06.382Z,64.68
2019-03-18T18:36:33.733Z,64.44
2019-03-18T18:39:01.013Z,64.53
2019-03-18T18:41:28.373Z,64.66
2019-03-18T18:43:55.576Z,64.64
2019-03-18T18:46:22.868Z,64.43
2019-03-18T18:48:50.170Z,63.98
2019-03-18T18:51:17.405Z,63.97
2019-03-18T18:53:44.665Z,63.57
2019-03-18T18:56:11.909Z,63.29
2019-03-18T18:58:39.226Z,63.20
2019-03-18T19:01:06.484Z,63.06
2019-03-18T19:03:33.804Z,63.14
2019-03-18T19:06:01.269Z,63.66
2019-03-18T19:08:28.515Z,63.81
2019-03-18T19:10:55.840Z,64.05
2019-03-18T19:13:23.129Z,64.45
2019-03-18T19:15:50.428Z,64.59
2019-03-18T19:18:17.714Z,64.24
2019-03-18T19:20:45.055Z,64.48
2019-03-18T19:23:12.318Z,64.58
2019-03-18T19:25:39.592Z,64.44
2019-03-18T19:28:06.860Z,64.14
2019-03-18T19:30:34.121Z,64.07
2019-03-18T19:33:01.349Z,64.50
2019-03-18T19:35:28.988Z,64.47
2019-03-18T19:37:56.520Z,64.69
2019-03-18T19:40:23.899Z,65.02
2019-03-18T19:42:51.323Z,64.93
2019-03-18T19:45:18.652Z,64.93
2019-03-18T19:47:46.037Z,65.08
2019-03-18T19:50:14.757Z,65.03
2019-03-18T19:52:42.006Z,65.25
2019-03-18T19:55:09.447Z,65.40
2019-03-18T19:57:37.017Z,65.90
2019-03-18T20:00:06.600Z,65.78
2019-03-18T20:02:33.900Z,65.65
2019-03-18T20:05:01.151Z,65.77
2019-03-18T20:07:28.450Z,66.67
2019-03-18T20:09:55.750Z,66.57
2019-03-18T20:12:23.028Z,66.74
2019-03-18T20:14:50.521Z,66.87
2019-03-18T20:17:17.765Z,66.70
2019-03-18T20:19:45.022Z,66.70
2019-03-18T20:22:12.305Z,66.78
2019-03-18T20:24:39.586Z,66.71
2019-03-18T20:27:06.949Z,66.61
2019-03-18T20:29:34.207Z,67.01
2019-03-18T20:32:01.491Z,67.35
2019-03-18T20:34:28.787Z,67.59
2019-03-18T20:36:56.039Z,67.36
2019-03-18T20:39:23.329Z,67.14
2019-03-18T20:41:50.770Z,66.73
2019-03-18T20:44:18.209Z,67.04
2019-03-18T20:46:45.467Z,67.04
2019-03-18T20:49:12.715Z,67.22
2019-03-18T20:51:39.980Z,66.93
2019-03-18T20:54:11.920Z,66.86
2019-03-18T20:56:38.769Z,67.12
2019-03-18T20:59:06.076Z,67.54
2019-03-18T21:01:33.437Z,67.59
2019-03-18T21:04:00.780Z,67.86
2019-03-18T21:06:28.090Z,67.78
2019-03-18T21:08:55.325Z,68.48
2019-03-18T21:11:22.545Z,68.29
2019-03-18T21:13:56.997Z,67.97
2019-03-18T21:16:19.010Z,68.24
2019-03-18T21:18:46.284Z,68.28
2019-03-18T21:21:13.594Z,67.78
2019-03-18T21:23:41.188Z,67.34
2019-03-18T21:26:08.544Z,67.27
2019-03-18T21:28:41.098Z,67.31
2019-03-18T21:31:04.988Z,67.47
2019-03-18T21:33:32.291Z,67.92
2019-03-18T21:35:59.570Z,68.01
2019-03-18T21:38:26.868Z,67.90
2019-03-18T21:40:54.153Z,67.64
2019-03-18T21:43:21.397Z,67.81
2019-03-18T21:45:48.689Z,68.02
2019-03-18T21:48:15.958Z,67.98
2019-03-18T21:50:43.252Z,68.01
2019-03-18T21:53:10.483Z,68.26
2019-03-18T21:55:37.845Z,68.16
2019-03-18T21:58:05.364Z,68.12
2019-03-18T22:00:32.689Z,68.47
2019-03-18T22:03:00.081Z,68.62
2019-03-18T22:05:27.427Z,68.65
2019-03-18T22:07:54.718Z,68.46
2019-03-18T22:10:21.966Z,68.50
2019-03-18T22:12:49.401Z,68.45
2019-03-18T22:15:16.951Z,68.15
2019-03-18T22:17:44.245Z,68.79
2019-03-18T22:20:12.602Z,68.67
2019-03-18T22:22:39.866Z,68.13
2019-03-18T22:25:07.766Z,68.13
2019-03-18T22:27:35.026Z,67.87
2019-03-18T22:30:02.377Z,68.22
2019-03-18T22:32:29.627Z,68.19
2019-03-18T22:34:56.950Z,68.17
2019-03-18T22:37:24.226Z,68.53
2019-03-18T22:39:51.850Z,68.73
2019-03-18T22:42:19.116Z,68.85
2019-03-18T22:44:46.400Z,69.03
2019-03-18T22:47:13.657Z,68.59
2019-03-18T22:49:40.902Z,68.50
2019-03-18T22:52:08.168Z,68.37
2019-03-18T22:54:35.425Z,68.37
2019-03-18T22:57:02.703Z,68.03
2019-03-18T22:59:29.959Z,67.89
2019-03-18T23:01:57.224Z,67.86
2019-03-18T23:04:24.545Z,67.83
2019-03-18T23:06:53.882Z,67.82
2019-03-18T23:09:21.144Z,68.41
2019-03-18T23:11:48.394Z,68.40
2019-03-18T23:14:15.660Z,68.22
2019-03-18T23:16:42.908Z,68.10
2019-03-18T23:19:10.157Z,68.16
2019-03-18T23:21:37.433Z,68.23
2019-03-18T23:24:04.671Z,68.03
2019-03-18T23:26:31.912Z,68.17
2019-03-18T23:28:59.200Z,68.06
2019-03-18T23:31:26.484Z,67.77
2019-03-18T23:33:53.755Z,67.62
2019-03-18T23:36:21.015Z,67.59
2019-03-18T23:38:48.290Z,67.79
2019-03-18T23:41:15.577Z,67.78
2019-03-18T23:43:42.842Z,67.87
2019-03-18T23:46:10.182Z,67.82
2019-03-18T23:48:37.431Z,67.56
2019-03-18T23:51:04.656Z,67.88
2019-03-18T23:53:31.917Z,67.89
2019-03-18T23:55:59.178Z,67.62
2019-03-18T23:58:26.431Z,67.62
